Time;durP1;ratioP1;P1;durP2;ratioP2;P2;SDS_P1;SDS_P2;PMS_P1;PMS_P2;Temp;Humidity;BMP_temperature;BMP_pressure;BME280_temperature;BME280_humidity;BME280_pressure;Samples;Min_cycle;Max_cycle;Signal;HPM_P1;HPM_P2
2021/01/24 00:00:18;;;;;;;20.37;14.97;;;;;;;1.53;87.19;98036.03;5079055;28;20509;-63
2021/01/24 00:02:44;;;;;;;36.70;16.43;;;;;;;1.50;87.28;98032.72;5062895;28;20456;-63
2021/01/24 00:05:10;;;;;;;22.00;14.70;;;;;;;1.52;87.34;98042.28;5060097;28;20449;-63
2021/01/24 00:07:36;;;;;;;23.80;16.53;;;;;;;1.50;87.34;98032.72;5076381;28;20472;-63
2021/01/24 00:10:04;;;;;;;22.73;15.10;;;;;;;1.52;87.48;98015.94;5062292;28;20788;-63
2021/01/24 00:12:30;;;;;;;21.67;15.33;;;;;;;1.40;87.64;98033.69;5076499;28;21001;-63
2021/01/24 00:14:57;;;;;;;25.83;15.33;;;;;;;1.49;87.40;98024.94;5079976;28;20455;-63
2021/01/24 00:17:23;;;;;;;20.17;14.53;;;;;;;1.56;87.10;98020.78;5063831;28;20508;-63
2021/01/24 00:19:50;;;;;;;22.60;15.73;;;;;;;1.42;87.63;98018.56;5061954;28;20441;-63
2021/01/24 00:22:16;;;;;;;21.40;14.73;;;;;;;1.56;87.24;98023.41;5060232;28;20499;-63
2021/01/24 00:24:42;;;;;;;25.03;16.30;;;;;;;1.55;87.06;98016.50;5060575;28;20453;-63
2021/01/24 00:27:08;;;;;;;25.43;15.40;;;;;;;1.56;87.13;98018.16;5075221;28;20505;-63
2021/01/24 00:29:35;;;;;;;21.30;14.40;;;;;;;1.58;86.93;98018.00;5070976;28;20449;-63
2021/01/24 00:32:02;;;;;;;22.10;14.70;;;;;;;1.51;87.06;98020.38;5074396;28;20544;-63
2021/01/24 00:34:28;;;;;;;24.07;14.23;;;;;;;1.56;87.13;98019.97;5073418;28;20484;-63
2021/01/24 00:36:54;;;;;;;19.13;13.60;;;;;;;1.52;87.38;98018.59;5070178;28;20475;-63
2021/01/24 00:39:20;;;;;;;23.93;14.67;;;;;;;1.53;87.49;98015.81;5075049;28;20443;-63
2021/01/24 00:41:46;;;;;;;19.83;14.53;;;;;;;1.53;87.46;98018.44;5059214;28;21015;-63
2021/01/24 00:44:13;;;;;;;22.73;14.03;;;;;;;1.50;87.61;98019.53;5063898;28;21011;-63
2021/01/24 00:46:39;;;;;;;23.63;13.80;;;;;;;1.55;87.43;98011.22;5078398;28;20487;-63
2021/01/24 00:49:06;;;;;;;22.90;15.10;;;;;;;1.46;87.77;98007.63;5078040;28;20959;-63
2021/01/24 00:51:32;;;;;;;22.30;15.30;;;;;;;1.51;87.85;98012.47;5069515;28;20503;-63
2021/01/24 00:53:58;;;;;;;21.70;14.40;;;;;;;1.49;88.02;98009.13;5079049;28;20525;-63
2021/01/24 00:56:25;;;;;;;24.27;15.27;;;;;;;1.48;87.84;98004.88;5079733;28;20490;-63
2021/01/24 00:58:51;;;;;;;20.70;13.20;;;;;;;1.42;88.34;98008.84;5064354;28;20472;-63
2021/01/24 01:01:17;;;;;;;22.00;14.63;;;;;;;1.43;88.17;98002.63;5067135;28;20475;-62
2021/01/24 01:03:43;;;;;;;24.03;15.13;;;;;;;1.45;88.41;98002.50;5065950;28;20460;-63
2021/01/24 01:06:10;;;;;;;20.77;13.60;;;;;;;1.37;88.95;97994.44;5059536;28;20485;-62
2021/01/24 01:08:36;;;;;;;22.20;14.10;;;;;;;1.42;88.67;98000.13;5073634;28;20456;-63
2021/01/24 01:11:03;;;;;;;24.97;14.77;;;;;;;1.42;88.63;98003.59;5079710;28;20483;-63
2021/01/24 01:13:29;;;;;;;21.93;15.40;;;;;;;1.37;88.84;98003.19;5067739;28;20460;-63
2021/01/24 01:15:55;;;;;;;23.30;15.27;;;;;;;1.38;88.79;98009.28;5062899;28;20492;-63
2021/01/24 01:18:21;;;;;;;20.80;13.37;;;;;;;1.37;89.07;97997.94;5060198;28;20453;-63
2021/01/24 01:20:47;;;;;;;24.70;15.13;;;;;;;1.38;88.89;97998.75;5065358;28;20475;-63
2021/01/24 01:23:14;;;;;;;19.60;13.97;;;;;;;1.38;88.84;97996.13;5078223;28;20448;-63
2021/01/24 01:25:41;;;;;;;22.50;14.10;;;;;;;1.38;88.81;97994.31;5077573;28;20564;-63
2021/01/24 01:28:07;;;;;;;21.20;15.73;;;;;;;1.44;88.52;97998.19;5080864;28;20475;-63
2021/01/24 01:30:33;;;;;;;23.90;14.57;;;;;;;1.37;88.81;97997.09;5078873;28;20510;-63
2021/01/24 01:32:59;;;;;;;21.23;14.27;;;;;;;1.34;88.94;97998.22;5077659;28;20441;-63
2021/01/24 01:35:25;;;;;;;18.77;13.90;;;;;;;1.28;89.15;97993.47;5059708;28;20493;-63
2021/01/24 01:37:51;;;;;;;19.40;13.37;;;;;;;1.34;88.80;97995.56;5062753;28;20467;-63
2021/01/24 01:40:18;;;;;;;21.60;15.53;;;;;;;1.28;88.98;97991.66;5059982;28;20457;-63
2021/01/24 01:42:45;;;;;;;21.63;14.07;;;;;;;1.30;88.98;98007.31;5061497;28;20527;-63
2021/01/24 01:45:11;;;;;;;25.27;14.13;;;;;;;1.30;89.08;97994.16;5079440;28;20445;-63
2021/01/24 01:47:37;;;;;;;20.53;13.10;;;;;;;1.38;88.63;97996.13;5080517;28;20439;-63
2021/01/24 01:50:04;;;;;;;20.63;15.23;;;;;;;1.35;88.68;97996.41;5080477;28;20464;-63
2021/01/24 01:52:30;;;;;;;20.60;13.50;;;;;;;1.31;89.02;97988.75;5077351;28;20565;-63
2021/01/24 01:54:57;;;;;;;20.80;13.70;;;;;;;1.36;88.68;97995.44;5079927;28;21050;-63
2021/01/24 01:57:25;;;;;;;19.10;12.67;;;;;;;1.41;88.52;97994.03;5078931;28;20519;-63
2021/01/24 01:59:52;;;;;;;22.17;14.43;;;;;;;1.37;88.94;97997.09;5060755;28;20464;-63
2021/01/24 02:02:42;;;;;;;22.27;13.93;;;;;;;1.31;88.96;97993.22;5059711;28;20526;-63
2021/01/24 02:05:12;;;;;;;25.77;15.07;;;;;;;1.38;89.13;97991.69;5059642;28;20842;-62
2021/01/24 02:07:42;;;;;;;19.00;12.40;;;;;;;1.31;89.28;97990.56;5063346;28;20440;-63
2021/01/24 02:10:14;;;;;;;22.00;14.70;;;;;;;1.28;89.57;97983.78;5066413;28;20476;-63
2021/01/24 02:12:47;;;;;;;18.73;13.67;;;;;;;1.28;89.71;97990.84;5062465;28;20492;-63
2021/01/24 02:15:16;;;;;;;19.77;13.53;;;;;;;1.25;90.06;97989.34;5078474;28;20490;-63
2021/01/24 02:17:45;;;;;;;21.43;13.87;;;;;;;1.27;89.61;97968.16;5070380;28;20448;-63
2021/01/24 02:20:16;;;;;;;19.00;13.43;;;;;;;1.31;89.69;97986.13;5059705;28;20429;-63
2021/01/24 02:22:44;;;;;;;18.43;13.23;;;;;;;1.22;90.00;97984.34;5061582;28;20967;-63
2021/01/24 02:25:14;;;;;;;20.97;13.37;;;;;;;1.25;89.96;97984.06;5079590;28;20455;-63
2021/01/24 02:27:43;;;;;;;20.33;13.47;;;;;;;1.23;90.17;97982.53;5080125;28;20448;-63
2021/01/24 02:30:22;;;;;;;22.03;13.80;;;;;;;1.22;90.39;97976.44;5078644;28;20505;-63
2021/01/24 02:32:52;;;;;;;19.37;13.37;;;;;;;1.21;90.16;97984.47;5061313;28;20489;-62
2021/01/24 02:35:18;;;;;;;21.50;12.33;;;;;;;1.15;90.61;97983.22;5079760;28;20472;-63
2021/01/24 02:37:45;;;;;;;21.40;13.03;;;;;;;1.15;90.57;97985.00;5080668;28;20436;-62
2021/01/24 02:40:12;;;;;;;17.83;12.00;;;;;;;1.09;91.09;97991.66;5059687;28;20475;-63
2021/01/24 02:42:39;;;;;;;20.50;13.47;;;;;;;1.08;91.11;97996.09;5059267;28;20917;-63
2021/01/24 02:45:07;;;;;;;18.97;12.90;;;;;;;1.15;91.00;97993.75;5059884;28;20464;-63
2021/01/24 02:47:34;;;;;;;20.73;13.73;;;;;;;1.15;91.29;97992.91;5080637;28;20495;-63
2021/01/24 02:50:02;;;;;;;21.00;13.97;;;;;;;1.12;91.14;97989.59;5065689;28;20456;-63
2021/01/24 02:52:28;;;;;;;21.37;12.10;;;;;;;1.10;91.36;97993.34;5062271;28;20507;-62
2021/01/24 02:54:55;;;;;;;23.83;14.60;;;;;;;1.10;91.46;97998.59;5065605;28;20452;-62
2021/01/24 02:57:21;;;;;;;17.57;13.10;;;;;;;1.13;91.36;97990.44;5062746;28;20616;-62
2021/01/24 02:59:47;;;;;;;17.03;13.20;;;;;;;1.08;91.40;97990.00;5079180;28;20498;-62
2021/01/24 03:02:13;;;;;;;19.53;13.53;;;;;;;1.06;91.53;97998.03;5081883;28;20502;-62
2021/01/24 03:04:40;;;;;;;18.00;11.60;;;;;;;1.04;92.01;97989.44;5069663;28;20452;-62
2021/01/24 03:07:07;;;;;;;17.50;12.43;;;;;;;1.12;91.82;98002.72;5062965;28;20609;-62
2021/01/24 03:09:33;;;;;;;22.13;13.70;;;;;;;1.04;92.04;97997.34;5065433;28;20434;-62
2021/01/24 03:12:00;;;;;;;20.47;12.50;;;;;;;1.02;91.87;97994.00;5062324;28;20556;-60
2021/01/24 03:14:26;;;;;;;20.37;14.67;;;;;;;1.05;91.61;98004.25;5064353;28;20489;-62
2021/01/24 03:16:55;;;;;;;23.40;14.47;;;;;;;0.99;91.64;97996.91;5076347;28;20475;-62
2021/01/24 03:19:22;;;;;;;16.87;12.83;;;;;;;1.03;91.87;97995.66;5073422;28;20454;-62
2021/01/24 03:21:50;;;;;;;21.40;12.83;;;;;;;0.96;91.62;97993.72;5082903;28;20476;-62
2021/01/24 03:24:18;;;;;;;21.17;14.20;;;;;;;0.91;92.10;97992.31;5072950;28;20457;-62
2021/01/24 03:26:45;;;;;;;20.20;14.40;;;;;;;0.91;92.27;97999.38;5078274;28;20914;-63
2021/01/24 03:29:12;;;;;;;19.37;13.40;;;;;;;0.90;92.36;97995.06;5074092;28;20444;-62
2021/01/24 03:31:39;;;;;;;17.67;12.83;;;;;;;0.88;92.46;98002.28;5073311;28;20472;-62
2021/01/24 03:34:09;;;;;;;20.67;12.60;;;;;;;0.88;92.28;97994.38;5076570;28;20484;-62
2021/01/24 03:36:35;;;;;;;19.00;13.77;;;;;;;0.88;92.22;98002.28;5062227;28;20662;-63
2021/01/24 03:39:02;;;;;;;19.13;12.90;;;;;;;0.88;92.29;97992.59;5069702;28;20468;-62
2021/01/24 03:41:28;;;;;;;20.87;13.90;;;;;;;0.95;92.03;97998.13;5069648;28;20546;-62
2021/01/24 03:43:54;;;;;;;24.37;13.67;;;;;;;0.90;92.29;97997.72;5083005;28;20472;-62
2021/01/24 03:46:21;;;;;;;20.37;13.40;;;;;;;0.79;92.42;97995.22;5077675;28;20495;-62
2021/01/24 03:48:47;;;;;;;22.53;12.90;;;;;;;0.81;92.42;97993.25;5081063;28;20455;-62
2021/01/24 03:51:13;;;;;;;25.60;13.77;;;;;;;0.79;92.58;97993.41;5072545;28;20502;-62
2021/01/24 03:53:39;;;;;;;18.93;13.90;;;;;;;0.79;92.48;97998.66;5069924;28;20456;-62
2021/01/24 03:56:06;;;;;;;21.17;14.17;;;;;;;0.77;92.26;97997.97;5062245;28;21057;-62
2021/01/24 03:58:32;;;;;;;20.43;13.50;;;;;;;0.67;92.63;98005.00;5074311;28;20444;-62
2021/01/24 04:00:58;;;;;;;22.67;14.67;;;;;;;0.76;92.70;97998.91;5080079;28;20483;-62
2021/01/24 04:03:24;;;;;;;19.40;13.57;;;;;;;0.79;92.52;97998.66;5082914;28;20459;-62
2021/01/24 04:05:51;;;;;;;21.70;14.07;;;;;;;0.72;92.85;98006.25;5077534;28;20481;-62
2021/01/24 04:08:17;;;;;;;19.40;13.40;;;;;;;0.80;92.72;98010.00;5066538;28;20449;-62
2021/01/24 04:10:43;;;;;;;19.47;13.40;;;;;;;0.78;93.03;98010.13;5076343;28;20480;-62
2021/01/24 04:13:10;;;;;;;20.30;14.40;;;;;;;0.66;93.02;98011.19;5075917;28;21019;-62
2021/01/24 04:15:36;;;;;;;22.10;13.93;;;;;;;0.71;92.73;98001.97;5060974;28;20503;-62
2021/01/24 04:18:02;;;;;;;21.30;12.77;;;;;;;0.73;92.69;98000.03;5067249;28;20468;-62
2021/01/24 04:20:29;;;;;;;23.00;13.30;;;;;;;0.80;92.79;98012.63;5081213;28;20467;-62
2021/01/24 04:22:55;;;;;;;21.30;12.90;;;;;;;0.74;91.99;98004.31;5078890;28;20475;-62
2021/01/24 04:25:23;;;;;;;20.43;13.33;;;;;;;0.63;92.42;97993.91;5061017;28;21019;-62
2021/01/24 04:27:49;;;;;;;21.03;14.20;;;;;;;0.65;92.47;97997.22;5063823;28;20433;-62
2021/01/24 04:30:17;;;;;;;22.23;14.50;;;;;;;0.65;92.45;97997.22;5079573;28;20503;-62
2021/01/24 04:32:43;;;;;;;20.00;13.30;;;;;;;0.58;92.68;98003.16;5061975;28;20512;-62
2021/01/24 04:35:11;;;;;;;22.17;15.17;;;;;;;0.73;92.71;97994.78;5080076;28;20487;-62
2021/01/24 04:37:37;;;;;;;21.87;14.57;;;;;;;0.64;92.85;98003.44;5082296;28;20916;-62
2021/01/24 04:40:04;;;;;;;21.83;14.37;;;;;;;0.69;92.75;97997.78;5062525;28;20488;-62
2021/01/24 04:42:31;;;;;;;21.13;13.40;;;;;;;0.57;92.68;98007.56;5060286;28;20487;-62
2021/01/24 04:44:57;;;;;;;24.77;15.70;;;;;;;0.53;92.69;98009.63;5078519;28;20448;-62
2021/01/24 04:47:24;;;;;;;26.33;16.10;;;;;;;0.54;92.74;98003.44;5062806;28;20481;-62
2021/01/24 04:49:51;;;;;;;24.23;16.57;;;;;;;0.56;92.90;97972.56;5080702;28;20517;-62
2021/01/24 04:52:17;;;;;;;29.97;16.47;;;;;;;0.60;93.07;98003.88;5073904;28;20562;-62
2021/01/24 04:54:44;;;;;;;27.23;16.63;;;;;;;0.64;92.97;97998.19;5062155;28;20480;-62
2021/01/24 04:57:10;;;;;;;26.37;16.97;;;;;;;0.51;93.03;98002.84;5074794;28;20540;-62
2021/01/24 04:59:36;;;;;;;24.83;15.27;;;;;;;0.59;92.74;98008.31;5080993;28;20436;-62
2021/01/24 05:02:03;;;;;;;24.73;15.70;;;;;;;0.63;92.68;98007.06;5065721;28;20504;-60
2021/01/24 05:04:30;;;;;;;26.30;15.80;;;;;;;0.49;92.77;97997.72;5062100;28;20459;-61
2021/01/24 05:06:56;;;;;;;26.93;16.57;;;;;;;0.48;93.20;98000.50;5060972;28;20512;-60
2021/01/24 05:09:22;;;;;;;23.10;14.47;;;;;;;0.54;92.93;98002.59;5068211;28;20440;-60
2021/01/24 05:11:50;;;;;;;28.73;16.50;;;;;;;0.57;92.63;98002.31;5078673;28;20823;-60
2021/01/24 05:14:17;;;;;;;26.73;16.27;;;;;;;0.50;92.89;97998.56;5080566;28;21010;-60
2021/01/24 05:16:44;;;;;;;31.23;17.23;;;;;;;0.55;92.78;98001.63;5079561;28;20502;-61
2021/01/24 05:19:10;;;;;;;26.17;15.27;;;;;;;0.49;92.57;97997.72;5070213;28;20449;-60
2021/01/24 05:21:38;;;;;;;27.03;15.63;;;;;;;0.46;93.12;98003.25;5060127;28;20554;-61
2021/01/24 05:24:08;;;;;;;22.70;14.97;;;;;;;0.48;92.68;98005.75;5071251;28;20474;-61
2021/01/24 05:26:37;;;;;;;23.47;15.37;;;;;;;0.46;93.03;98005.88;5080196;28;20472;-61
2021/01/24 05:29:04;;;;;;;26.93;16.37;;;;;;;0.36;92.88;97995.34;5081496;28;20463;-61
2021/01/24 05:31:30;;;;;;;25.07;15.57;;;;;;;0.43;93.48;98005.31;5079018;28;20483;-61
2021/01/24 05:33:57;;;;;;;26.33;16.13;;;;;;;0.42;92.92;98011.53;5081111;28;20623;-61
2021/01/24 05:36:24;;;;;;;25.57;14.50;;;;;;;0.36;92.90;98012.88;5080660;28;20506;-61
2021/01/24 05:38:52;;;;;;;27.40;15.83;;;;;;;0.39;92.78;98017.88;5074401;28;20498;-61
2021/01/24 05:41:19;;;;;;;23.80;15.30;;;;;;;0.30;93.00;98021.31;5060059;28;20665;-61
2021/01/24 05:43:45;;;;;;;28.63;15.70;;;;;;;0.28;93.09;98024.06;5066075;28;20475;-61
2021/01/24 05:46:12;;;;;;;24.73;16.07;;;;;;;0.38;92.84;98024.09;5072461;28;20476;-61
2021/01/24 05:48:47;;;;;;;24.10;15.23;;;;;;;0.36;92.85;98029.50;5066146;28;20441;-61
2021/01/24 05:51:14;;;;;;;22.57;13.27;;;;;;;0.30;93.15;98030.03;5078647;28;20471;-61
2021/01/24 05:53:44;;;;;;;21.43;14.30;;;;;;;0.33;93.01;98029.75;5060940;28;20465;-61
2021/01/24 05:56:16;;;;;;;22.50;14.93;;;;;;;0.36;92.79;98034.75;5060156;28;20476;-61
2021/01/24 05:58:42;;;;;;;25.97;15.90;;;;;;;0.30;93.09;98039.72;5077038;28;20550;-61
2021/01/24 06:01:09;;;;;;;23.87;14.53;;;;;;;0.25;93.03;98044.53;5066238;28;20495;-61
2021/01/24 06:03:35;;;;;;;24.63;15.50;;;;;;;0.22;92.89;98047.41;5074679;28;20451;-61
2021/01/24 06:06:02;;;;;;;23.43;14.90;;;;;;;0.29;92.85;98038.03;5080107;28;20499;-61
2021/01/24 06:08:29;;;;;;;26.27;16.77;;;;;;;0.33;92.79;98048.16;5081432;28;20431;-61
2021/01/24 06:10:56;;;;;;;24.40;14.53;;;;;;;0.29;92.62;98027.50;5079841;28;20471;-61
2021/01/24 06:13:24;;;;;;;22.97;14.67;;;;;;;0.40;92.41;98060.75;5078958;28;20530;-61
2021/01/24 06:15:52;;;;;;;25.20;15.80;;;;;;;0.31;92.31;98055.34;5078613;28;20475;-61
2021/01/24 06:18:20;;;;;;;26.50;15.63;;;;;;;0.24;92.33;98067.31;5079853;28;20473;-61
2021/01/24 06:20:53;;;;;;;27.60;15.87;;;;;;;0.17;92.48;98056.50;5078080;28;20488;-61
2021/01/24 06:23:25;;;;;;;22.27;14.50;;;;;;;0.14;92.80;98061.16;5082980;28;20468;-61
2021/01/24 06:25:52;;;;;;;20.67;13.57;;;;;;;0.20;92.61;98068.53;5076043;28;20476;-61
2021/01/24 06:28:23;;;;;;;22.37;13.73;;;;;;;0.20;92.42;98070.34;5065154;28;20460;-61
2021/01/24 06:30:50;;;;;;;20.67;14.37;;;;;;;0.08;92.49;98078.28;5058180;28;20480;-61
2021/01/24 06:33:18;;;;;;;20.80;13.13;;;;;;;0.20;92.65;98081.69;5063969;28;20520;-61
2021/01/24 06:35:46;;;;;;;23.23;15.33;;;;;;;0.24;92.43;98079.63;5061983;28;20491;-61
2021/01/24 06:38:30;;;;;;;25.30;14.90;;;;;;;0.35;91.72;98087.47;5046043;28;20452;-61
2021/01/24 06:40:56;;;;;;;24.50;13.47;;;;;;;0.42;91.70;98087.75;5042809;28;20489;-61
2021/01/24 06:43:41;;;;;;;19.87;13.83;;;;;;;0.37;91.53;98093.41;5060629;28;20925;-61
2021/01/24 06:46:09;;;;;;;21.00;13.63;;;;;;;0.38;91.75;98100.31;5069287;28;20467;-61
2021/01/24 06:48:43;;;;;;;22.83;15.13;;;;;;;0.47;91.04;98090.81;5082743;28;20456;-61
2021/01/24 06:51:32;;;;;;;21.07;14.03;;;;;;;0.30;91.55;98102.78;5053441;28;20476;-61
2021/01/24 06:53:59;;;;;;;23.87;15.37;;;;;;;0.32;91.54;98106.09;5044119;28;20564;-61
2021/01/24 06:56:34;;;;;;;25.07;14.73;;;;;;;0.30;91.55;98115.91;5044400;28;20481;-61
2021/01/24 06:59:00;;;;;;;23.80;15.13;;;;;;;0.22;91.88;98118.34;5051348;28;20445;-61
2021/01/24 07:01:29;;;;;;;24.07;15.10;;;;;;;0.30;91.89;98129.88;5059567;28;20564;-61
2021/01/24 07:04:41;;;;;;;25.47;15.90;;;;;;;0.29;91.77;98128.22;5057831;28;20512;-60
2021/01/24 07:07:33;;;;;;;20.20;14.27;;;;;;;0.28;91.83;98139.69;5043893;28;20887;-61
2021/01/24 07:10:01;;;;;;;27.20;15.40;;;;;;;0.25;91.99;98134.69;5043786;28;20532;-61
2021/01/24 07:12:35;;;;;;;22.87;14.27;;;;;;;0.07;92.62;98144.09;5046825;28;20528;-61
2021/01/24 07:15:02;;;;;;;20.77;14.17;;;;;;;0.16;92.72;98140.72;5053855;28;20519;-61
2021/01/24 07:17:29;;;;;;;24.17;17.00;;;;;;;0.24;92.37;98145.34;5048184;28;20474;-61
2021/01/24 07:19:56;;;;;;;23.17;14.40;;;;;;;0.36;91.82;98158.31;5043832;28;20513;-60
2021/01/24 07:22:23;;;;;;;21.73;14.60;;;;;;;0.49;91.39;98159.91;5053905;28;20526;-61
2021/01/24 07:24:50;;;;;;;23.70;14.80;;;;;;;0.47;91.07;98167.06;5050231;28;21067;-61
2021/01/24 07:27:18;;;;;;;21.27;14.20;;;;;;;0.44;91.21;98168.16;5052194;28;20472;-61
2021/01/24 07:29:44;;;;;;;22.13;13.70;;;;;;;0.47;91.13;98174.94;5062745;28;20559;-61
2021/01/24 07:32:13;;;;;;;18.57;13.60;;;;;;;0.40;91.14;98166.75;5055602;28;20509;-61
2021/01/24 07:34:41;;;;;;;17.77;13.47;;;;;;;0.35;91.35;98180.28;5045569;28;20465;-61
2021/01/24 07:37:08;;;;;;;21.73;14.50;;;;;;;0.34;91.25;98183.03;5043642;28;20481;-61
2021/01/24 07:39:35;;;;;;;22.63;14.33;;;;;;;0.40;91.15;98163.28;5055724;28;20449;-62
2021/01/24 07:42:02;;;;;;;18.77;12.80;;;;;;;0.30;91.36;98190.34;5061001;28;20480;-61
2021/01/24 07:44:28;;;;;;;20.83;12.87;;;;;;;0.33;91.54;98200.59;5063165;28;20469;-61
2021/01/24 07:46:55;;;;;;;20.80;13.67;;;;;;;0.32;91.47;98208.63;5056807;28;20486;-61
2021/01/24 07:49:21;;;;;;;21.27;14.20;;;;;;;0.38;91.39;98208.09;5043760;28;20468;-61
2021/01/24 07:51:48;;;;;;;22.73;13.27;;;;;;;0.37;91.46;98215.16;5055515;28;20476;-62
2021/01/24 07:54:15;;;;;;;19.40;13.77;;;;;;;0.37;91.44;98211.69;5045210;28;20460;-61
2021/01/24 07:56:42;;;;;;;21.30;14.63;;;;;;;0.28;91.40;98208.03;5044018;28;20493;-61
2021/01/24 07:59:08;;;;;;;20.13;13.70;;;;;;;0.28;91.85;98217.69;5060076;28;20509;-61
2021/01/24 08:01:35;;;;;;;19.63;13.60;;;;;;;0.27;91.98;98223.94;5057793;28;20508;-61
2021/01/24 08:04:01;;;;;;;20.30;13.93;;;;;;;0.38;91.72;98221.22;5049269;28;20541;-60
2021/01/24 08:06:27;;;;;;;17.10;11.90;;;;;;;0.37;91.42;98227.47;5050302;28;20500;-61
2021/01/24 08:08:54;;;;;;;16.17;11.77;;;;;;;0.36;91.46;98233.69;5062978;28;20445;-61
2021/01/24 08:11:21;;;;;;;16.57;11.60;;;;;;;0.48;91.14;98218.69;5079141;28;20525;-61
2021/01/24 08:13:47;;;;;;;17.27;11.80;;;;;;;0.44;91.17;98236.50;5077428;28;20444;-61
2021/01/24 08:16:16;;;;;;;17.30;11.87;;;;;;;0.46;90.96;98246.91;5074384;28;21156;-61
2021/01/24 08:18:44;;;;;;;17.40;12.00;;;;;;;0.55;91.04;98252.22;5063457;28;20459;-61
2021/01/24 08:21:10;;;;;;;18.37;11.70;;;;;;;0.52;90.99;98255.13;5067205;28;21009;-61
2021/01/24 08:23:37;;;;;;;17.13;12.20;;;;;;;0.56;90.89;98250.44;5069350;28;20456;-61
2021/01/24 08:26:05;;;;;;;16.17;11.47;;;;;;;0.57;90.70;98257.34;5068763;28;20463;-63
2021/01/24 08:28:32;;;;;;;15.93;11.97;;;;;;;0.50;91.01;98264.91;5062896;28;20441;-62
2021/01/24 08:30:59;;;;;;;15.77;11.30;;;;;;;0.65;90.72;98259.38;5057929;28;20507;-62
2021/01/24 08:33:25;;;;;;;13.70;9.73;;;;;;;0.61;90.57;98271.94;5060120;28;20858;-62
2021/01/24 08:35:52;;;;;;;14.60;10.80;;;;;;;0.71;90.43;98269.38;5058004;28;20484;-62
2021/01/24 08:38:19;;;;;;;14.40;11.23;;;;;;;0.77;90.09;98270.69;5065414;28;20464;-62
2021/01/24 08:40:45;;;;;;;12.57;9.47;;;;;;;0.80;89.94;98273.88;5070856;28;21100;-62
2021/01/24 08:43:12;;;;;;;13.67;11.03;;;;;;;0.87;89.97;98284.75;5064462;28;20498;-62
2021/01/24 08:45:38;;;;;;;12.93;9.97;;;;;;;0.85;89.39;98279.59;5067686;28;20477;-62
2021/01/24 08:48:06;;;;;;;12.00;9.37;;;;;;;0.81;89.76;98293.94;5071445;28;20448;-61
2021/01/24 08:50:33;;;;;;;13.60;9.73;;;;;;;0.85;89.71;98298.03;5065351;28;20568;-61
2021/01/24 08:53:00;;;;;;;13.13;10.70;;;;;;;0.78;89.83;98296.00;5068814;28;20538;-61
2021/01/24 08:55:27;;;;;;;12.23;9.70;;;;;;;0.81;89.78;98286.06;5061923;28;20524;-61
2021/01/24 08:57:53;;;;;;;14.20;9.27;;;;;;;0.93;89.67;98302.63;5077275;28;20432;-62
2021/01/24 09:00:22;;;;;;;13.07;10.60;;;;;;;1.08;89.09;98313.69;5059877;28;20508;-61
2021/01/24 09:02:48;;;;;;;13.03;9.87;;;;;;;1.09;89.27;98310.94;5066743;28;20460;-61
2021/01/24 09:05:16;;;;;;;13.30;9.90;;;;;;;1.17;88.86;98314.72;5059623;28;20455;-61
2021/01/24 09:07:43;;;;;;;11.60;9.20;;;;;;;1.19;88.65;98316.25;5079683;28;20474;-61
2021/01/24 09:10:17;;;;;;;11.90;9.30;;;;;;;1.28;88.37;98312.00;5067918;28;21100;-62
2021/01/24 09:12:44;;;;;;;14.07;10.63;;;;;;;1.26;88.27;98300.75;5070521;28;20488;-62
2021/01/24 09:15:11;;;;;;;12.53;9.07;;;;;;;1.32;88.27;98295.00;5075740;28;20977;-62
2021/01/24 09:17:38;;;;;;;12.37;10.00;;;;;;;1.31;88.45;98325.72;5080459;28;20493;-62
2021/01/24 09:20:06;;;;;;;14.67;10.00;;;;;;;1.26;88.40;98325.28;5078412;28;20443;-61
2021/01/24 09:22:32;;;;;;;13.83;11.13;;;;;;;1.32;88.39;98326.59;5073644;28;20448;-61
2021/01/24 09:24:58;;;;;;;12.27;9.33;;;;;;;1.25;88.56;98341.19;5080040;28;20479;-62
2021/01/24 09:27:24;;;;;;;14.37;10.37;;;;;;;1.18;88.56;98335.66;5079115;28;20471;-62
2021/01/24 09:29:51;;;;;;;13.40;10.87;;;;;;;1.13;89.22;98346.53;5078383;28;20444;-62
2021/01/24 09:32:17;;;;;;;15.00;11.73;;;;;;;1.30;88.72;98337.25;5077944;28;20504;-62
2021/01/24 09:34:44;;;;;;;16.63;12.23;;;;;;;1.25;88.45;98347.31;5080520;28;20486;-62
2021/01/24 09:37:10;;;;;;;15.20;11.73;;;;;;;1.19;88.60;98355.72;5078372;28;20479;-62
2021/01/24 09:39:36;;;;;;;18.07;13.20;;;;;;;1.25;88.70;98357.84;5080067;28;20479;-62
2021/01/24 09:42:03;;;;;;;19.97;15.00;;;;;;;1.26;88.72;98358.69;5065254;28;20528;-60
2021/01/24 09:44:29;;;;;;;21.43;14.37;;;;;;;1.33;88.53;98364.28;5074263;28;20451;-61
2021/01/24 09:46:55;;;;;;;24.77;16.27;;;;;;;1.47;88.16;98367.41;5069697;28;20485;-60
2021/01/24 09:49:21;;;;;;;24.80;16.70;;;;;;;1.48;88.45;98379.59;5070412;28;20447;-60
2021/01/24 09:51:48;;;;;;;31.77;20.60;;;;;;;1.67;88.07;98372.78;5068544;28;20481;-60
2021/01/24 09:54:17;;;;;;;30.20;19.83;;;;;;;1.63;87.88;98374.00;5070837;28;20480;-60
2021/01/24 09:56:43;;;;;;;33.90;22.00;;;;;;;1.71;87.66;98381.28;5069300;28;20468;-62
2021/01/24 09:59:09;;;;;;;41.07;24.73;;;;;;;1.45;88.12;98385.13;5075012;28;20454;-62
2021/01/24 10:01:36;;;;;;;39.10;24.37;;;;;;;1.42;88.84;98393.28;5069312;28;20483;-62
2021/01/24 10:04:02;;;;;;;38.77;24.73;;;;;;;1.59;88.90;98393.69;5071759;28;20501;-61
2021/01/24 10:06:28;;;;;;;41.63;24.93;;;;;;;1.72;88.54;98396.94;5073079;28;20818;-62
2021/01/24 10:08:55;;;;;;;46.33;26.57;;;;;;;1.75;87.90;98395.84;5072071;28;20474;-62
2021/01/24 10:11:23;;;;;;;43.53;27.00;;;;;;;1.85;88.15;98396.72;5070242;28;20719;-62
2021/01/24 10:13:49;;;;;;;45.47;28.03;;;;;;;1.94;87.70;98397.75;5072960;28;20567;-62
2021/01/24 10:16:16;;;;;;;47.50;28.87;;;;;;;2.02;87.45;98408.47;5065360;28;20464;-62
2021/01/24 10:18:42;;;;;;;40.77;28.20;;;;;;;1.98;87.22;98412.31;5072133;28;20452;-61
2021/01/24 10:21:08;;;;;;;50.53;31.57;;;;;;;1.97;87.35;98410.66;5070301;28;20480;-60
2021/01/24 10:23:35;;;;;;;51.80;28.77;;;;;;;1.82;87.83;98407.53;5074645;28;20455;-62
2021/01/24 10:26:02;;;;;;;51.70;28.63;;;;;;;1.94;87.73;98411.75;5073870;28;21045;-61
2021/01/24 10:28:28;;;;;;;48.07;29.43;;;;;;;1.97;86.92;98410.66;5075017;28;20428;-61
2021/01/24 10:30:54;;;;;;;51.37;29.63;;;;;;;2.32;86.91;98417.31;5074944;28;20541;-61
2021/01/24 10:33:22;;;;;;;48.77;29.93;;;;;;;2.41;86.23;98414.72;5072680;28;21077;-61
2021/01/24 10:35:48;;;;;;;48.10;29.90;;;;;;;2.59;86.11;98425.47;5073160;28;20476;-61
2021/01/24 10:38:15;;;;;;;50.27;29.43;;;;;;;2.48;85.98;98425.56;5072386;28;20445;-61
2021/01/24 10:40:42;;;;;;;50.20;29.47;;;;;;;2.63;85.52;98424.22;5071892;28;20471;-61
2021/01/24 10:43:10;;;;;;;48.83;30.87;;;;;;;2.32;85.74;98426.06;5070786;28;20991;-60
2021/01/24 10:45:37;;;;;;;45.87;28.27;;;;;;;2.33;86.03;98427.75;5063326;28;20479;-63
2021/01/24 10:48:05;;;;;;;53.73;31.40;;;;;;;2.42;86.33;98423.47;5071911;28;20466;-61
2021/01/24 10:50:32;;;;;;;50.13;30.40;;;;;;;2.44;85.79;98427.63;5074278;28;20521;-61
2021/01/24 10:52:59;;;;;;;48.43;31.20;;;;;;;2.43;86.08;98433.03;5071661;28;20566;-63
2021/01/24 10:55:25;;;;;;;52.70;30.77;;;;;;;2.62;86.19;98434.91;5067556;28;20479;-61
2021/01/24 10:57:51;;;;;;;49.50;29.77;;;;;;;2.68;85.78;98439.66;5070827;28;20448;-61
2021/01/24 11:00:20;;;;;;;47.07;29.57;;;;;;;2.82;85.46;98449.00;5065404;28;20483;-60
2021/01/24 11:02:46;;;;;;;44.00;27.93;;;;;;;2.66;85.78;98448.66;5069712;28;20463;-61
2021/01/24 11:05:12;;;;;;;46.20;27.47;;;;;;;2.57;85.87;98450.28;5072895;28;20463;-61
2021/01/24 11:07:38;;;;;;;46.20;28.77;;;;;;;2.60;85.39;98458.81;5076486;28;20945;-61
2021/01/24 11:10:06;;;;;;;38.10;26.13;;;;;;;2.45;86.21;98466.25;5070458;28;20456;-61
2021/01/24 11:12:32;;;;;;;40.93;26.53;;;;;;;2.30;86.97;98458.81;5065961;28;20479;-61
2021/01/24 11:14:59;;;;;;;37.43;24.10;;;;;;;2.32;86.84;98467.44;5077608;28;20452;-61
2021/01/24 11:17:26;;;;;;;36.80;23.33;;;;;;;2.18;86.72;98469.44;5072938;28;20503;-61
2021/01/24 11:19:52;;;;;;;39.53;24.13;;;;;;;2.20;86.68;98469.31;5075770;28;20687;-61
2021/01/24 11:22:19;;;;;;;34.57;22.80;;;;;;;2.35;87.38;98459.25;5080990;28;20472;-61
2021/01/24 11:24:46;;;;;;;34.30;22.57;;;;;;;2.52;86.58;98474.47;5082692;28;20469;-61
2021/01/24 11:27:12;;;;;;;35.47;23.10;;;;;;;2.56;86.54;98486.41;5076481;28;20476;-61